createdAt,value
2017-10-12T00:00:37.402Z,83.90
2017-10-12T00:03:05.123Z,84.00
2017-10-12T00:05:32.815Z,83.90
2017-10-12T00:08:00.947Z,83.60
2017-10-12T00:10:28.670Z,83.60
2017-10-12T00:12:56.311Z,83.30
2017-10-12T00:15:23.980Z,83.40
2017-10-12T00:17:51.939Z,83.50
2017-10-12T00:20:19.617Z,83.40
2017-10-12T00:22:47.274Z,83.30
2017-10-12T00:25:15.072Z,83.20
2017-10-12T00:27:42.819Z,83.30
2017-10-12T00:30:10.511Z,83.30
2017-10-12T00:32:38.243Z,83.30
2017-10-12T00:35:06.370Z,83.30
2017-10-12T00:37:34.113Z,83.20
2017-10-12T00:40:01.848Z,83.30
2017-10-12T00:42:29.609Z,83.20
2017-10-12T00:44:57.360Z,83.20
2017-10-12T00:47:25.071Z,83.20
2017-10-12T00:49:52.767Z,83.20
2017-10-12T00:52:20.847Z,83.30
2017-10-12T00:54:48.682Z,83.20
2017-10-12T00:57:16.813Z,83.80
2017-10-12T00:59:44.502Z,83.80
2017-10-12T01:02:12.409Z,83.70
2017-10-12T01:04:40.115Z,83.70
2017-10-12T01:07:07.827Z,83.60
2017-10-12T01:09:36.367Z,83.50
2017-10-12T01:12:04.144Z,83.60
2017-10-12T01:14:32.292Z,83.10
2017-10-12T01:17:00.471Z,83.20
2017-10-12T01:19:28.281Z,83.20
2017-10-12T01:21:56.031Z,83.10
2017-10-12T01:24:23.813Z,83.40
2017-10-12T01:26:51.568Z,83.50
2017-10-12T01:29:19.296Z,83.30
2017-10-12T01:31:47.075Z,83.30
2017-10-12T01:34:14.803Z,83.20
2017-10-12T01:36:42.614Z,83.20
2017-10-12T01:39:10.464Z,83.30
2017-10-12T01:41:38.380Z,83.40
2017-10-12T01:44:06.162Z,83.70
2017-10-12T01:46:34.333Z,83.90
2017-10-12T01:49:02.159Z,83.80
2017-10-12T01:51:29.927Z,83.80
2017-10-12T01:53:57.665Z,83.70
2017-10-12T01:56:25.351Z,83.60
2017-10-12T01:58:53.017Z,83.80
2017-10-12T02:01:20.784Z,83.80
2017-10-12T02:03:48.554Z,83.50
2017-10-12T02:06:16.307Z,83.70
2017-10-12T02:08:44.149Z,84.40
2017-10-12T02:11:11.851Z,84.30
2017-10-12T02:13:39.524Z,84.30
2017-10-12T02:16:07.288Z,84.40
2017-10-12T02:18:34.987Z,84.50
2017-10-12T02:21:02.785Z,84.40
2017-10-12T02:23:30.677Z,84.20
2017-10-12T02:25:58.382Z,84.40
2017-10-12T02:28:26.129Z,84.20
2017-10-12T02:30:53.915Z,84.20
2017-10-12T02:33:21.807Z,84.40
2017-10-12T02:35:49.482Z,84.30
2017-10-12T02:38:17.191Z,84.40
2017-10-12T02:40:44.850Z,84.20
2017-10-12T02:43:12.612Z,84.50
2017-10-12T02:45:40.319Z,84.40
2017-10-12T02:48:08.107Z,84.30
2017-10-12T02:50:35.828Z,84.40
2017-10-12T02:53:03.656Z,84.80
2017-10-12T02:55:31.375Z,84.00
2017-10-12T02:57:59.432Z,84.20
2017-10-12T03:00:27.214Z,84.20
2017-10-12T03:02:54.854Z,84.90
2017-10-12T03:05:22.548Z,84.70
2017-10-12T03:07:50.351Z,85.00
2017-10-12T03:10:18.054Z,85.20
2017-10-12T03:12:46.197Z,85.20
2017-10-12T03:15:14.046Z,85.20
2017-10-12T03:17:41.778Z,85.10
2017-10-12T03:20:09.643Z,84.70
2017-10-12T03:22:37.434Z,84.50
2017-10-12T03:25:05.201Z,84.50
2017-10-12T03:27:32.949Z,84.40
2017-10-12T03:30:00.720Z,84.10
2017-10-12T03:32:28.483Z,84.50
2017-10-12T03:34:57.056Z,84.50
2017-10-12T03:37:24.796Z,84.90
2017-10-12T03:39:52.544Z,85.10
2017-10-12T03:42:20.292Z,85.50
2017-10-12T03:44:48.040Z,85.60
2017-10-12T03:47:15.786Z,85.20
2017-10-12T03:49:43.533Z,85.20
2017-10-12T03:52:11.262Z,85.10
2017-10-12T03:54:39.028Z,85.10
2017-10-12T03:57:06.775Z,85.20
2017-10-12T03:59:34.542Z,85.20
2017-10-12T04:02:02.626Z,85.10
2017-10-12T04:04:30.332Z,85.10
2017-10-12T04:06:58.074Z,85.20
2017-10-12T04:09:25.723Z,85.00
2017-10-12T04:11:53.465Z,85.00
2017-10-12T04:14:21.187Z,85.10
2017-10-12T04:16:48.885Z,84.80
2017-10-12T04:19:16.923Z,84.90
2017-10-12T04:21:44.636Z,84.90
2017-10-12T04:24:12.304Z,85.10
2017-10-12T04:26:40.007Z,84.90
2017-10-12T04:29:07.798Z,84.80
2017-10-12T04:31:35.506Z,84.80
2017-10-12T04:34:03.230Z,84.80
2017-10-12T04:36:31.003Z,84.80
2017-10-12T04:38:58.688Z,84.50
2017-10-12T04:41:26.334Z,84.40
2017-10-12T04:43:54.182Z,84.50
2017-10-12T04:46:21.856Z,84.50
2017-10-12T04:48:49.985Z,84.30
2017-10-12T04:51:17.731Z,84.30
2017-10-12T04:53:45.478Z,84.30
2017-10-12T04:56:13.225Z,84.30
2017-10-12T04:58:40.932Z,84.30
2017-10-12T05:01:08.621Z,84.00
2017-10-12T05:03:36.359Z,84.00
2017-10-12T05:06:04.129Z,83.60
2017-10-12T05:08:32.240Z,83.20
2017-10-12T05:11:00.016Z,83.20
2017-10-12T05:13:27.766Z,83.10
2017-10-12T05:15:55.513Z,83.50
2017-10-12T05:18:23.260Z,83.80
2017-10-12T05:20:50.994Z,83.80
2017-10-12T05:23:18.652Z,83.80
2017-10-12T05:25:46.292Z,83.60
2017-10-12T05:28:14.019Z,83.60
2017-10-12T05:30:41.791Z,83.50
2017-10-12T05:33:09.542Z,83.60
2017-10-12T05:35:37.311Z,83.70
2017-10-12T05:38:05.422Z,83.10
2017-10-12T05:40:33.226Z,83.10
2017-10-12T05:43:01.113Z,83.70
2017-10-12T05:45:28.789Z,83.80
2017-10-12T05:47:56.466Z,83.20
2017-10-12T05:50:24.694Z,82.50
2017-10-12T05:52:52.366Z,82.50
2017-10-12T05:55:20.466Z,82.50
2017-10-12T05:57:48.239Z,82.50
2017-10-12T06:00:16.057Z,82.10
2017-10-12T06:02:43.736Z,82.40
2017-10-12T06:05:11.586Z,81.60
2017-10-12T06:07:39.334Z,81.70
2017-10-12T06:10:07.118Z,81.40
2017-10-12T06:12:34.929Z,81.30
2017-10-12T06:15:02.707Z,81.30
2017-10-12T06:17:30.511Z,80.20
2017-10-12T06:19:58.383Z,79.20
2017-10-12T06:22:26.062Z,78.40
2017-10-12T06:24:53.731Z,78.90
2017-10-12T06:27:21.458Z,78.20
2017-10-12T06:29:49.272Z,77.30
2017-10-12T06:32:17.359Z,77.10
2017-10-12T06:34:45.171Z,77.10
2017-10-12T06:37:12.917Z,76.90
2017-10-12T06:39:40.614Z,76.10
2017-10-12T06:42:08.418Z,75.70
2017-10-12T06:44:36.162Z,74.70
2017-10-12T06:47:03.956Z,74.60
2017-10-12T06:49:31.808Z,74.70
2017-10-12T06:51:59.507Z,74.60
2017-10-12T06:54:27.254Z,74.30
2017-10-12T06:56:54.995Z,74.40
2017-10-12T06:59:22.747Z,74.80
2017-10-12T07:01:50.468Z,74.50
2017-10-12T07:04:18.218Z,74.70
2017-10-12T07:06:45.885Z,74.00
2017-10-12T07:09:13.551Z,73.90
2017-10-12T07:11:41.792Z,73.30
2017-10-12T07:14:09.466Z,73.30
2017-10-12T07:16:37.592Z,71.90
2017-10-12T07:19:05.385Z,71.90
2017-10-12T07:21:33.163Z,71.90
2017-10-12T07:24:00.933Z,71.70
2017-10-12T07:26:28.670Z,71.20
2017-10-12T07:28:56.433Z,70.20
2017-10-12T07:31:24.112Z,70.80
2017-10-12T07:33:52.276Z,69.60
2017-10-12T07:36:19.978Z,69.60
2017-10-12T07:38:47.729Z,70.20
2017-10-12T07:41:15.443Z,69.50
2017-10-12T07:43:43.120Z,69.10
2017-10-12T07:46:10.869Z,69.40
2017-10-12T07:48:38.612Z,68.60
2017-10-12T07:51:06.362Z,68.80
2017-10-12T07:53:34.068Z,69.00
2017-10-12T07:56:01.883Z,68.10
2017-10-12T07:58:29.994Z,67.90
2017-10-12T08:00:57.682Z,67.90
2017-10-12T08:03:25.843Z,66.20
2017-10-12T08:05:53.981Z,67.20
2017-10-12T08:08:21.687Z,67.30
2017-10-12T08:10:49.437Z,66.80
2017-10-12T08:13:17.217Z,66.30
2017-10-12T08:15:44.964Z,66.00
2017-10-12T08:18:12.814Z,66.50
2017-10-12T08:20:40.563Z,67.00
2017-10-12T08:23:08.308Z,66.40
2017-10-12T08:25:36.126Z,66.30
2017-10-12T08:28:03.861Z,66.80
2017-10-12T08:30:31.603Z,65.80
2017-10-12T08:32:59.466Z,65.60
2017-10-12T08:35:27.119Z,65.90
2017-10-12T08:37:54.896Z,66.20
2017-10-12T08:40:22.747Z,64.70
2017-10-12T08:42:50.422Z,64.40
2017-10-12T08:45:18.107Z,65.10
2017-10-12T08:47:45.884Z,65.20
2017-10-12T08:50:13.566Z,65.70
2017-10-12T08:52:41.614Z,64.80
2017-10-12T08:55:09.536Z,64.80
2017-10-12T08:57:37.235Z,65.40
2017-10-12T09:00:04.959Z,65.10
2017-10-12T09:02:33.123Z,64.40
2017-10-12T09:05:00.851Z,64.40
2017-10-12T09:07:28.582Z,65.20
2017-10-12T09:09:56.329Z,65.40
2017-10-12T09:12:24.077Z,64.70
2017-10-12T09:14:51.927Z,64.80
2017-10-12T09:17:19.652Z,64.10
2017-10-12T09:19:47.318Z,62.40
2017-10-12T09:22:14.995Z,62.20
2017-10-12T09:24:43.134Z,62.70
2017-10-12T09:27:10.885Z,62.70
2017-10-12T09:29:38.598Z,63.30
2017-10-12T09:32:06.507Z,63.70
2017-10-12T09:34:34.274Z,64.30
2017-10-12T09:37:02.049Z,64.70
2017-10-12T09:39:29.842Z,65.70
2017-10-12T09:41:58.171Z,66.20
2017-10-12T09:44:26.022Z,66.20
2017-10-12T09:46:53.909Z,65.90
2017-10-12T09:49:21.721Z,64.50
2017-10-12T09:51:49.891Z,65.50
2017-10-12T09:54:17.839Z,64.80
2017-10-12T09:56:45.556Z,64.80
2017-10-12T09:59:13.275Z,64.30
2017-10-12T10:01:41.022Z,63.90
2017-10-12T10:04:08.748Z,63.40
2017-10-12T10:06:36.843Z,64.60
2017-10-12T10:09:04.825Z,64.60
2017-10-12T10:11:32.551Z,64.40
2017-10-12T10:14:00.261Z,63.90
2017-10-12T10:16:28.105Z,64.50
2017-10-12T10:18:56.170Z,64.60
2017-10-12T10:21:23.874Z,64.70
2017-10-12T10:23:51.731Z,65.20
2017-10-12T10:26:19.879Z,63.10
2017-10-12T10:28:47.612Z,63.00
2017-10-12T10:31:15.424Z,62.90
2017-10-12T10:33:43.123Z,63.10
2017-10-12T10:36:10.866Z,63.90
2017-10-12T10:38:38.702Z,64.30
2017-10-12T10:41:06.389Z,65.10
2017-10-12T10:43:34.516Z,65.50
2017-10-12T10:46:02.272Z,65.50
2017-10-12T10:48:30.360Z,65.50
2017-10-12T10:50:58.325Z,65.50
2017-10-12T10:53:26.124Z,65.60
2017-10-12T10:55:53.803Z,65.10
2017-10-12T10:58:22.028Z,65.60
2017-10-12T11:00:49.879Z,65.60
2017-10-12T11:03:17.625Z,65.90
2017-10-12T11:05:45.372Z,65.80
2017-10-12T11:08:13.063Z,65.90
2017-10-12T11:10:40.739Z,65.80
2017-10-12T11:13:08.396Z,66.30
2017-10-12T11:15:36.127Z,67.00
2017-10-12T11:18:03.903Z,68.00
2017-10-12T11:20:31.619Z,68.10
2017-10-12T11:22:59.384Z,68.50
2017-10-12T11:25:27.112Z,68.90
2017-10-12T11:27:54.895Z,69.40
2017-10-12T11:30:22.642Z,68.70
2017-10-12T11:32:50.295Z,70.00
2017-10-12T11:35:18.035Z,70.00
2017-10-12T11:37:45.775Z,70.30
2017-10-12T11:40:13.528Z,70.80
2017-10-12T11:42:41.275Z,70.80
2017-10-12T11:45:09.022Z,71.50
2017-10-12T11:47:36.898Z,71.10
2017-10-12T11:50:04.625Z,71.60
2017-10-12T11:52:32.368Z,71.80
2017-10-12T11:55:00.125Z,72.00
2017-10-12T11:57:27.864Z,72.40
2017-10-12T11:59:55.671Z,72.50
2017-10-12T12:02:23.315Z,72.60
2017-10-12T12:04:51.003Z,72.40
2017-10-12T12:07:18.792Z,72.60
2017-10-12T12:09:46.440Z,72.00
2017-10-12T12:12:14.078Z,72.10
2017-10-12T12:14:42.301Z,72.00
2017-10-12T12:17:10.047Z,72.00
2017-10-12T12:19:37.706Z,72.20
2017-10-12T12:22:05.443Z,72.40
2017-10-12T12:24:33.141Z,72.60
2017-10-12T12:27:00.851Z,72.70
2017-10-12T12:29:28.956Z,72.80
2017-10-12T12:31:56.625Z,72.80
2017-10-12T12:34:24.273Z,72.90
2017-10-12T12:36:52.176Z,73.00
2017-10-12T12:39:19.840Z,72.70
2017-10-12T12:41:47.520Z,72.80
2017-10-12T12:44:15.268Z,72.50
2017-10-12T12:46:43.017Z,73.00
2017-10-12T12:49:10.763Z,72.70
2017-10-12T12:51:38.556Z,72.90
2017-10-12T12:54:06.249Z,72.30
2017-10-12T12:56:34.091Z,72.00
2017-10-12T12:59:01.838Z,71.30
2017-10-12T13:01:29.529Z,71.00
2017-10-12T13:03:57.660Z,69.90
2017-10-12T13:06:25.379Z,69.90
2017-10-12T13:08:53.153Z,69.30
2017-10-12T13:11:20.828Z,69.20
2017-10-12T13:13:48.939Z,66.20
2017-10-12T13:16:16.598Z,66.20
2017-10-12T13:18:44.262Z,65.30
2017-10-12T13:21:11.990Z,65.80
2017-10-12T13:23:39.635Z,66.40
2017-10-12T13:26:07.311Z,65.90
2017-10-12T13:28:35.430Z,66.50
2017-10-12T13:31:03.118Z,66.50
2017-10-12T13:33:30.864Z,65.20
2017-10-12T13:35:58.985Z,65.90
2017-10-12T13:38:26.736Z,65.90
2017-10-12T13:40:54.484Z,66.00
2017-10-12T13:43:22.333Z,65.80
2017-10-12T13:45:49.988Z,66.70
2017-10-12T13:48:17.726Z,67.20
2017-10-12T13:50:45.432Z,67.70
2017-10-12T13:53:13.092Z,67.60
2017-10-12T13:55:40.761Z,67.60
2017-10-12T13:58:08.475Z,67.70
2017-10-12T14:00:36.220Z,67.30
2017-10-12T14:03:03.939Z,67.30
2017-10-12T14:05:31.853Z,67.60
2017-10-12T14:07:59.529Z,68.40
2017-10-12T14:10:27.249Z,68.50
2017-10-12T14:12:54.996Z,68.70
2017-10-12T14:15:22.767Z,68.70
2017-10-12T14:17:50.441Z,68.80
2017-10-12T14:20:18.243Z,68.90
2017-10-12T14:22:45.891Z,68.70
2017-10-12T14:25:13.628Z,69.30
2017-10-12T14:27:41.346Z,69.60
2017-10-12T14:30:09.012Z,69.30
2017-10-12T14:32:36.769Z,69.50
2017-10-12T14:35:04.565Z,69.00
2017-10-12T14:37:32.278Z,69.60
2017-10-12T14:39:59.966Z,69.60
2017-10-12T14:42:27.834Z,69.30
2017-10-12T14:44:55.474Z,69.10
2017-10-12T14:47:23.120Z,69.50
2017-10-12T14:49:51.104Z,69.90
2017-10-12T14:52:18.851Z,69.80
2017-10-12T14:54:46.496Z,70.10
2017-10-12T14:57:14.346Z,69.90
2017-10-12T14:59:42.047Z,69.60
2017-10-12T15:02:09.839Z,68.90
2017-10-12T15:04:37.690Z,68.90
2017-10-12T15:07:05.424Z,68.70
2017-10-12T15:09:33.160Z,68.40
2017-10-12T15:12:00.934Z,68.00
2017-10-12T15:14:28.596Z,68.00
2017-10-12T15:16:56.326Z,68.50
2017-10-12T15:19:24.031Z,69.50
2017-10-12T15:21:51.737Z,69.50
2017-10-12T15:24:19.796Z,69.50
2017-10-12T15:26:48.019Z,69.80
2017-10-12T15:29:15.724Z,69.80
2017-10-12T15:31:43.422Z,70.10
2017-10-12T15:34:11.478Z,70.40
2017-10-12T15:36:39.123Z,69.70
2017-10-12T15:39:06.802Z,70.60
2017-10-12T15:41:35.051Z,70.80
2017-10-12T15:44:03.179Z,71.00
2017-10-12T15:46:31.034Z,71.00
2017-10-12T15:48:58.783Z,71.10
2017-10-12T15:51:26.471Z,71.40
2017-10-12T15:53:54.122Z,71.60
2017-10-12T15:56:21.922Z,72.20
2017-10-12T15:58:49.580Z,72.50
2017-10-12T16:01:17.316Z,72.90
2017-10-12T16:03:45.164Z,73.00
2017-10-12T16:06:12.911Z,73.20
2017-10-12T16:08:40.559Z,73.60
2017-10-12T16:11:08.405Z,73.70
2017-10-12T16:13:36.152Z,74.10
2017-10-12T16:16:03.909Z,74.40
2017-10-12T16:18:31.894Z,74.50
2017-10-12T16:20:59.556Z,74.90
2017-10-12T16:23:27.220Z,75.10
2017-10-12T16:25:55.029Z,75.40
2017-10-12T16:28:23.088Z,75.70
2017-10-12T16:30:50.899Z,75.70
2017-10-12T16:33:19.593Z,75.90
2017-10-12T16:35:47.643Z,76.40
2017-10-12T16:38:15.692Z,76.30
2017-10-12T16:40:43.526Z,76.30
2017-10-12T16:43:11.187Z,76.40
2017-10-12T16:45:38.853Z,76.40
2017-10-12T16:48:07.088Z,76.60
2017-10-12T16:53:02.743Z,76.80
2017-10-12T16:55:30.493Z,76.90
2017-10-12T16:57:58.249Z,77.20
2017-10-12T17:00:25.914Z,77.50
2017-10-12T17:02:53.766Z,77.80
2017-10-12T17:05:21.517Z,78.10
2017-10-12T17:07:49.215Z,78.20
2017-10-12T17:10:17.007Z,78.30
2017-10-12T17:12:44.711Z,78.40
2017-10-12T17:15:12.501Z,78.70
2017-10-12T17:17:40.219Z,78.60
2017-10-12T17:20:07.995Z,79.30
2017-10-12T17:22:35.676Z,79.50
2017-10-12T17:25:03.483Z,79.70
2017-10-12T17:27:31.190Z,79.60
2017-10-12T17:29:58.865Z,79.70
2017-10-12T17:32:26.584Z,79.70
2017-10-12T17:34:54.226Z,79.90
2017-10-12T17:37:21.930Z,80.10
2017-10-12T17:39:49.661Z,80.00
2017-10-12T17:42:17.354Z,80.10
2017-10-12T17:44:45.324Z,80.20
2017-10-12T17:47:13.063Z,80.00
2017-10-12T17:49:40.763Z,80.20
2017-10-12T17:52:08.558Z,80.20
2017-10-12T17:54:36.347Z,80.30
2017-10-12T17:57:04.069Z,80.30
2017-10-12T17:59:31.780Z,80.60
2017-10-12T18:01:59.483Z,80.60
2017-10-12T18:06:55.280Z,81.10
2017-10-12T18:09:23.029Z,81.30
2017-10-12T18:14:18.497Z,81.40
2017-10-12T18:16:46.299Z,81.50
2017-10-12T18:19:13.975Z,81.50
2017-10-12T18:21:41.656Z,81.50
2017-10-12T18:24:09.441Z,81.50
2017-10-12T18:26:37.137Z,81.40
2017-10-12T18:29:04.791Z,81.40
2017-10-12T18:31:32.515Z,81.40
2017-10-12T18:34:00.377Z,81.50
2017-10-12T18:36:28.059Z,81.60
2017-10-12T18:38:56.151Z,81.60
2017-10-12T18:41:25.543Z,81.60
2017-10-12T18:43:54.566Z,81.70
2017-10-12T18:46:22.740Z,81.90
2017-10-12T18:48:50.790Z,82.50
2017-10-12T18:51:19.322Z,82.50
2017-10-12T18:53:47.023Z,82.50
2017-10-12T18:56:14.759Z,82.90
2017-10-12T18:58:42.446Z,83.00
2017-10-12T19:01:10.351Z,83.20
2017-10-12T19:03:38.079Z,83.20
2017-10-12T19:06:06.131Z,83.40
2017-10-12T19:08:34.026Z,83.40
2017-10-12T19:11:01.676Z,83.40
2017-10-12T19:13:29.331Z,83.20
2017-10-12T19:15:57.114Z,83.60
2017-10-12T19:18:24.767Z,83.60
2017-10-12T19:20:52.496Z,83.50
2017-10-12T19:23:20.311Z,83.20
2017-10-12T19:25:48.387Z,83.00
2017-10-12T19:30:44.152Z,83.30
2017-10-12T19:33:11.996Z,83.60
2017-10-12T19:38:08.412Z,83.20
2017-10-12T19:40:36.062Z,83.10
2017-10-12T19:43:04.011Z,83.00
2017-10-12T19:45:31.814Z,82.90
2017-10-12T19:48:00.384Z,82.80
2017-10-12T19:50:28.446Z,82.70
2017-10-12T19:52:56.285Z,82.50
2017-10-12T19:55:24.032Z,82.60
2017-10-12T19:57:51.780Z,82.50
2017-10-12T20:00:19.495Z,82.60
2017-10-12T20:02:47.545Z,82.50
2017-10-12T20:05:15.202Z,82.50
2017-10-12T20:07:43.817Z,82.60
2017-10-12T20:10:12.051Z,82.70
2017-10-12T20:12:39.798Z,82.70
2017-10-12T20:15:07.520Z,82.70
2017-10-12T20:17:35.178Z,82.80
2017-10-12T20:20:02.867Z,82.80
2017-10-12T20:22:31.199Z,82.70
2017-10-12T20:24:59.799Z,82.80
2017-10-12T20:27:27.867Z,83.00
2017-10-12T20:29:55.589Z,83.00
2017-10-12T20:32:23.242Z,83.10
2017-10-12T20:34:51.334Z,83.00
2017-10-12T20:37:19.035Z,83.00
2017-10-12T20:39:47.175Z,83.00
2017-10-12T20:42:14.922Z,83.00
2017-10-12T20:44:42.642Z,83.00
2017-10-12T20:47:10.331Z,83.00
2017-10-12T20:49:38.160Z,83.00
2017-10-12T20:54:33.479Z,83.10
2017-10-12T20:57:01.612Z,83.20
2017-10-12T20:59:29.317Z,83.20
2017-10-12T21:01:56.967Z,83.20
2017-10-12T21:04:24.626Z,83.10
2017-10-12T21:06:52.419Z,83.10
2017-10-12T21:09:20.473Z,83.30
2017-10-12T21:11:48.520Z,83.50
2017-10-12T21:14:16.235Z,83.50
2017-10-12T21:16:44.018Z,83.70
2017-10-12T21:19:12.142Z,83.90
2017-10-12T21:21:39.959Z,83.90
2017-10-12T21:24:07.744Z,83.90
2017-10-12T21:26:35.396Z,84.10
2017-10-12T21:29:03.259Z,84.30
2017-10-12T21:31:31.323Z,84.50
2017-10-12T21:33:59.384Z,84.90
2017-10-12T21:36:27.523Z,84.70
2017-10-12T21:38:55.171Z,84.70
2017-10-12T21:41:22.904Z,84.70
2017-10-12T21:43:50.607Z,84.70
2017-10-12T21:46:18.296Z,84.60
2017-10-12T21:48:45.941Z,84.70
2017-10-12T21:51:13.659Z,84.70
2017-10-12T21:53:41.340Z,84.70
2017-10-12T21:56:09.047Z,84.70
2017-10-12T21:58:36.878Z,84.80
2017-10-12T22:01:04.686Z,84.80
2017-10-12T22:03:32.344Z,84.90
2017-10-12T22:06:00.430Z,84.50
2017-10-12T22:08:28.111Z,84.50
2017-10-12T22:10:55.760Z,84.60
2017-10-12T22:13:23.476Z,84.70
2017-10-12T22:15:51.114Z,84.80
2017-10-12T22:18:18.762Z,84.70
2017-10-12T22:20:46.652Z,84.70
2017-10-12T22:23:14.320Z,85.00
2017-10-12T22:25:42.062Z,85.10
2017-10-12T22:28:09.810Z,85.20
2017-10-12T22:30:37.532Z,85.20
2017-10-12T22:33:05.191Z,85.20
2017-10-12T22:35:32.967Z,85.10
2017-10-12T22:38:00.623Z,85.10
2017-10-12T22:40:28.671Z,85.20
2017-10-12T22:42:56.460Z,85.20
2017-10-12T22:45:24.165Z,85.10
2017-10-12T22:47:51.864Z,85.10
2017-10-12T22:50:19.719Z,85.00
2017-10-12T22:52:47.398Z,85.30
2017-10-12T22:55:15.056Z,85.30
2017-10-12T22:57:42.754Z,85.40
2017-10-12T23:00:10.402Z,85.40
2017-10-12T23:02:38.116Z,85.40
2017-10-12T23:05:06.228Z,85.40
2017-10-12T23:07:33.875Z,85.40
2017-10-12T23:10:01.533Z,85.80
2017-10-12T23:12:29.286Z,85.90
2017-10-12T23:14:57.033Z,85.90
2017-10-12T23:17:24.689Z,85.80
2017-10-12T23:19:52.441Z,85.80
2017-10-12T23:22:20.237Z,85.60
2017-10-12T23:24:47.950Z,85.40
2017-10-12T23:27:16.298Z,85.40
2017-10-12T23:29:44.439Z,85.10
2017-10-12T23:32:12.082Z,85.10
2017-10-12T23:34:39.891Z,85.10
2017-10-12T23:37:07.555Z,85.20
2017-10-12T23:39:35.615Z,85.20
2017-10-12T23:42:03.771Z,85.40
2017-10-12T23:44:31.867Z,85.60
2017-10-12T23:46:59.543Z,85.60
2017-10-12T23:49:27.288Z,86.20
2017-10-12T23:51:55.036Z,86.40
2017-10-12T23:54:22.782Z,86.50
2017-10-12T23:56:50.574Z,86.70
2017-10-12T23:59:18.291Z,86.90
